Time;durP1;ratioP1;P1;durP2;ratioP2;P2;SDS_P1;SDS_P2;PMS_P1;PMS_P2;Temp;Humidity;BMP_temperature;BMP_pressure;BME280_temperature;BME280_humidity;BME280_pressure;Samples;Min_cycle;Max_cycle;Signal;HPM_P1;HPM_P2
2023/07/14 00:00:09;;;;;;;;;;;;;;;-144.99;100.00;52358.41;5030256;28;20098;-73
2023/07/14 00:02:35;;;;;;;;;;;;;;;-144.99;100.00;52340.06;5030421;28;19998;-73
2023/07/14 00:05:02;;;;;;;;;;;;;;;-144.99;100.00;52374.72;5030636;28;19967;-72
2023/07/14 00:07:29;;;;;;;;;;;;;;;-144.99;100.00;52331.91;5029678;28;20042;-72
2023/07/14 00:09:57;;;;;;;;;;;;;;;-144.99;100.00;52297.25;5030154;28;20107;-71
2023/07/14 00:12:23;;;;;;;;;;;;;;;-144.99;100.00;52309.50;5034015;28;20025;-73
2023/07/14 00:14:50;;;;;;;;;;;;;;;-144.99;100.00;52311.53;5056519;28;19995;-74
2023/07/14 00:17:16;;;;;;;;;;;;;;;-144.99;100.00;52305.41;5040911;28;19962;-73
2023/07/14 00:19:42;;;;;;;;;;;;;;;-144.99;100.00;52287.06;5038944;28;20002;-74
2023/07/14 00:22:11;;;;;;;;;;;;;;;-144.99;100.00;52305.41;5030531;28;19973;-74
2023/07/14 00:24:37;;;;;;;;;;;;;;;-144.99;100.00;52311.53;5030175;28;20432;-74
2023/07/14 00:27:16;;;;;;;;;;;;;;;-144.99;100.00;52325.81;5030854;28;19965;-74
2023/07/14 00:29:43;;;;;;;;;;;;;;;-144.99;100.00;52354.34;5026867;28;19945;-73
2023/07/14 00:32:13;;;;;;;;;;;;;;;-144.99;100.00;52362.50;5030157;28;20380;-74
2023/07/14 00:34:40;;;;;;;;;;;;;;;-144.99;100.00;52342.09;5029513;28;19959;-74
2023/07/14 00:37:06;;;;;;;;;;;;;;;-144.99;100.00;52370.63;5030237;28;20032;-75
2023/07/14 00:39:33;;;;;;;;;;;;;;;-144.99;100.00;52358.41;5028878;28;19966;-74
2023/07/14 00:41:59;;;;;;;;;;;;;;;-144.99;100.00;52344.16;5025356;28;20455;-74
2023/07/14 00:44:27;;;;;;;;;;;;;;;-144.99;100.00;52293.19;5029480;28;20038;-75
2023/07/14 00:46:54;;;;;;;;;;;;;;;-144.99;100.00;52333.94;5029866;28;20506;-73
2023/07/14 00:49:25;;;;;;;;;;;;;;;-144.99;100.00;52331.91;5029440;28;19978;-74
2023/07/14 00:51:53;;;;;;;;;;;;;;;-144.99;100.00;52317.66;5057654;28;20027;-73
2023/07/14 00:54:27;;;;;;;;;;;;;;;-144.99;100.00;52329.88;5033317;28;19972;-74
2023/07/14 00:56:54;;;;;;;;;;;;;;;-144.99;100.00;52338.03;5030354;28;19953;-74
2023/07/14 00:59:22;;;;;;;;;;;;;;;-144.99;100.00;52313.56;5024571;28;19956;-75
2023/07/14 01:02:08;;;;;;;;;;;;;;;-144.99;100.00;52313.56;5030270;28;19996;-74
2023/07/14 01:04:35;;;;;;;;;;;;;;;-144.99;100.00;52364.53;5030690;28;19989;-73
2023/07/14 01:07:04;;;;;;;;;;;;;;;-144.99;100.00;52340.06;5029782;28;19942;-75
2023/07/14 01:09:31;;;;;;;;;;;;;;;-144.99;100.00;52327.84;5029527;28;20384;-74
2023/07/14 01:12:00;;;;;;;;;;;;;;;-144.99;100.00;52313.56;5029525;28;19957;-74
2023/07/14 01:14:29;;;;;;;;;;;;;;;-144.99;100.00;52338.03;5029446;28;19925;-75
2023/07/14 01:16:56;;;;;;;;;;;;;;;-144.99;100.00;52366.56;5029937;28;20043;-74
2023/07/14 01:19:29;;;;;;;;;;;;;;;-144.99;100.00;52354.34;5029208;28;20338;-73
2023/07/14 01:22:14;;;;;;;;;;;;;;;-144.99;100.00;52315.59;5030028;28;20015;-75
2023/07/14 01:24:46;;;;;;;;;;;;;;;-144.99;100.00;52338.03;5027513;28;20026;-75
2023/07/14 01:27:14;;;;;;;;;;;;;;;-144.99;100.00;52325.81;5030232;28;20035;-74
2023/07/14 01:29:43;;;;;;;;;;;;;;;-144.99;100.00;52329.88;5029172;28;20042;-75
2023/07/14 01:32:14;;;;;;;;;;;;;;;-144.99;100.00;52338.03;5030892;28;19956;-76
2023/07/14 01:34:40;;;;;;;;;;;;;;;-144.99;100.00;52356.38;5030448;28;19941;-75
2023/07/14 01:37:06;;;;;;;;;;;;;;;-144.99;100.00;52338.03;5030752;28;19946;-75
2023/07/14 01:39:35;;;;;;;;;;;;;;;-144.99;100.00;52338.03;5028505;28;20020;-72
2023/07/14 01:42:01;;;;;;;;;;;;;;;-144.99;100.00;52303.38;5028934;28;20034;-75
2023/07/14 01:44:31;;;;;;;;;;;;;;;-144.99;100.00;52344.16;5028918;28;20578;-75
2023/07/14 01:46:58;;;;;;;;;;;;;;;-144.99;100.00;52342.09;5037897;28;19975;-76
2023/07/14 01:49:34;;;;;;;;;;;;;;;-144.99;100.00;52350.25;5052063;28;19962;-76
2023/07/14 01:52:02;;;;;;;;;;;;;;;-144.99;100.00;52352.28;5042689;28;20003;-76
2023/07/14 01:54:31;;;;;;;;;;;;;;;-144.99;100.00;52327.84;5029562;28;20093;-75
2023/07/14 01:56:59;;;;;;;;;;;;;;;-144.99;100.00;52358.41;5024555;28;20030;-75
2023/07/14 01:59:28;;;;;;;;;;;;;;;-144.99;100.00;52344.16;5026313;28;19962;-76
2023/07/14 02:01:59;;;;;;;;;;;;;;;-144.99;100.00;52350.25;5032607;28;20003;-75
2023/07/14 02:04:28;;;;;;;;;;;;;;;-144.99;100.00;52317.66;5055550;28;19938;-77
2023/07/14 02:06:56;;;;;;;;;;;;;;;-144.99;100.00;52329.88;5058083;28;20383;-77
2023/07/14 02:09:23;;;;;;;;;;;;;;;-144.99;100.00;52348.22;5031643;28;19939;-76
2023/07/14 02:11:54;;;;;;;;;;;;;;;-144.99;100.00;52376.75;5043647;28;19959;-76
2023/07/14 02:14:22;;;;;;;;;;;;;;;-144.99;100.00;52354.34;5032139;28;19945;-74
2023/07/14 02:16:49;;;;;;;;;;;;;;;-144.99;100.00;52333.94;5033228;28;20469;-74
2023/07/14 02:19:20;;;;;;;;;;;;;;;-144.99;100.00;52362.50;5033102;28;19956;-72
2023/07/14 02:21:47;;;;;;;;;;;;;;;-144.99;100.00;52303.38;5035407;28;19961;-72
2023/07/14 02:24:17;;;;;;;;;;;;;;;-144.99;100.00;52358.41;5036745;28;19942;-72
2023/07/14 02:26:44;;;;;;;;;;;;;;;-144.99;100.00;52309.50;5034386;28;19945;-73
2023/07/14 02:29:11;;;;;;;;;;;;;;;-144.99;100.00;52321.72;5031269;28;19941;-73
2023/07/14 02:31:40;;;;;;;;;;;;;;;-144.99;100.00;52346.19;5032067;28;20082;-72
2023/07/14 02:34:10;;;;;;;;;;;;;;;-144.99;100.00;52325.81;5032086;28;20068;-74
2023/07/14 02:36:43;;;;;;;;;;;;;;;-144.99;100.00;52358.41;5028900;28;20074;-73
2023/07/14 02:39:10;;;;;;;;;;;;;;;-144.99;100.00;52317.66;5034059;28;19955;-76
2023/07/14 02:41:38;;;;;;;;;;;;;;;-144.99;100.00;52364.53;5048698;28;19966;-73
2023/07/14 02:44:06;;;;;;;;;;;;;;;-144.99;100.00;52342.09;5050868;28;19939;-76
2023/07/14 02:46:37;;;;;;;;;;;;;;;-144.99;100.00;52313.56;5033470;28;19947;-76
2023/07/14 02:49:04;;;;;;;;;;;;;;;-144.99;100.00;52346.19;5031061;28;19939;-75
2023/07/14 02:51:30;;;;;;;;;;;;;;;-144.99;100.00;52319.69;5032639;28;19956;-74
2023/07/14 02:53:58;;;;;;;;;;;;;;;-144.99;100.00;52354.34;5032509;28;19948;-75
2023/07/14 02:56:25;;;;;;;;;;;;;;;-144.99;100.00;52348.22;5032303;28;19959;-75
2023/07/14 02:58:52;;;;;;;;;;;;;;;-144.99;100.00;52317.66;5030660;28;20159;-76
2023/07/14 03:01:19;;;;;;;;;;;;;;;-144.99;100.00;52338.03;5032109;28;19996;-77
2023/07/14 03:03:46;;;;;;;;;;;;;;;-144.99;100.00;52342.09;5032076;28;19949;-76
2023/07/14 03:06:14;;;;;;;;;;;;;;;-144.99;100.00;52366.56;5031206;28;19935;-76
2023/07/14 03:08:41;;;;;;;;;;;;;;;-144.99;100.00;52364.53;5029739;28;19948;-75
2023/07/14 03:11:09;;;;;;;;;;;;;;;-144.99;100.00;52338.03;5030375;28;19964;-75
2023/07/14 03:13:36;;;;;;;;;;;;;;;-144.99;100.00;52358.41;5031344;28;19941;-76
2023/07/14 03:16:03;;;;;;;;;;;;;;;-144.99;100.00;52370.63;5031697;28;19941;-75
2023/07/14 03:18:29;;;;;;;;;;;;;;;-144.99;100.00;52362.50;5049287;28;19944;-76
2023/07/14 03:20:56;;;;;;;;;;;;;;;-144.99;100.00;52344.16;5050569;28;20350;-74
2023/07/14 03:23:23;;;;;;;;;;;;;;;-144.99;100.00;52338.03;5031281;28;20021;-74
2023/07/14 03:25:53;;;;;;;;;;;;;;;-144.99;100.00;52382.88;5031044;28;19940;-74
2023/07/14 03:28:21;;;;;;;;;;;;;;;-144.99;100.00;52333.94;5030361;28;19949;-74
2023/07/14 03:30:48;;;;;;;;;;;;;;;-144.99;100.00;52317.66;5030978;28;19996;-75
2023/07/14 03:33:14;;;;;;;;;;;;;;;-144.99;100.00;52321.72;5032591;28;19937;-75
2023/07/14 03:35:41;;;;;;;;;;;;;;;-144.99;100.00;52342.09;5033066;28;19941;-74
2023/07/14 03:38:08;;;;;;;;;;;;;;;-144.99;100.00;52366.56;5032784;28;20040;-74
2023/07/14 03:40:34;;;;;;;;;;;;;;;-144.99;100.00;52352.28;5029725;28;20009;-74
2023/07/14 03:43:03;;;;;;;;;;;;;;;-144.99;100.00;52315.59;5032902;28;19942;-75
2023/07/14 03:45:31;;;;;;;;;;;;;;;-144.99;100.00;52309.50;5031222;28;19943;-73
2023/07/14 03:47:57;;;;;;;;;;;;;;;-144.99;100.00;52346.19;5031453;28;20023;-76
2023/07/14 03:50:24;;;;;;;;;;;;;;;-144.99;100.00;52352.28;5029198;28;19954;-75
2023/07/14 03:52:52;;;;;;;;;;;;;;;-144.99;100.00;52338.03;5029985;28;19944;-75
2023/07/14 03:55:18;;;;;;;;;;;;;;;-144.99;100.00;52346.19;5054284;28;19996;-73
2023/07/14 03:57:45;;;;;;;;;;;;;;;-144.99;100.00;52325.81;5041897;28;19939;-75
2023/07/14 04:00:17;;;;;;;;;;;;;;;-144.99;100.00;52362.50;5030397;28;19972;-75
2023/07/14 04:02:46;;;;;;;;;;;;;;;-144.99;100.00;52333.94;5041100;28;20005;-76
2023/07/14 04:05:13;;;;;;;;;;;;;;;-144.99;100.00;52329.88;5035047;28;19943;-74
2023/07/14 04:07:40;;;;;;;;;;;;;;;-144.99;100.00;52354.34;5030093;28;19949;-73
2023/07/14 04:10:08;;;;;;;;;;;;;;;-144.99;100.00;52358.41;5029854;28;19954;-73
2023/07/14 04:12:35;;;;;;;;;;;;;;;-144.99;100.00;52362.50;5028240;28;20375;-73
2023/07/14 04:15:01;;;;;;;;;;;;;;;-144.99;100.00;52358.41;5030202;28;19939;-72
2023/07/14 04:17:28;;;;;;;;;;;;;;;-144.99;100.00;52309.50;5030790;28;19940;-75
2023/07/14 04:19:56;;;;;;;;;;;;;;;-144.99;100.00;52333.94;5030049;28;19957;-73
2023/07/14 04:22:23;;;;;;;;;;;;;;;-144.99;100.00;52346.19;5030807;28;19967;-72
2023/07/14 04:24:50;;;;;;;;;;;;;;;-144.99;100.00;52315.59;5032657;28;19949;-72
2023/07/14 04:27:16;;;;;;;;;;;;;;;-144.99;100.00;52317.66;5042149;28;19950;-75
2023/07/14 04:29:44;;;;;;;;;;;;;;;-144.99;100.00;52301.34;5051076;28;19941;-72
2023/07/14 04:32:11;;;;;;;;;;;;;;;-144.99;100.00;52333.94;5039549;28;19998;-73
2023/07/14 04:34:37;;;;;;;;;;;;;;;-144.99;100.00;52327.84;5031132;28;20003;-72
2023/07/14 04:37:06;;;;;;;;;;;;;;;-144.99;100.00;52333.94;5030869;28;19937;-73
2023/07/14 04:39:33;;;;;;;;;;;;;;;-144.99;100.00;52313.56;5030778;28;19957;-73
2023/07/14 04:42:00;;;;;;;;;;;;;;;-144.99;100.00;52321.72;5027344;28;20468;-72
2023/07/14 04:44:26;;;;;;;;;;;;;;;-144.99;100.00;52352.28;5030185;28;19945;-73
2023/07/14 04:46:53;;;;;;;;;;;;;;;-144.99;100.00;52342.09;5030735;28;19946;-72
2023/07/14 04:49:20;;;;;;;;;;;;;;;-144.99;100.00;52301.34;5030862;28;19952;-73
2023/07/14 04:51:46;;;;;;;;;;;;;;;-144.99;100.00;52336.00;5030657;28;20040;-72
2023/07/14 04:54:14;;;;;;;;;;;;;;;-144.99;100.00;52311.53;5030408;28;19946;-73
2023/07/14 04:56:43;;;;;;;;;;;;;;;-144.99;100.00;52358.41;5031050;28;19989;-72
2023/07/14 04:59:10;;;;;;;;;;;;;;;-144.99;100.00;52342.09;5030691;28;19965;-71
2023/07/14 05:01:37;;;;;;;;;;;;;;;-144.99;100.00;52307.47;5032772;28;19973;-72
2023/07/14 05:04:04;;;;;;;;;;;;;;;-144.99;100.00;52305.41;5039499;28;19936;-73
2023/07/14 05:06:31;;;;;;;;;;;;;;;-144.99;100.00;52283.00;5040476;28;20430;-73
2023/07/14 05:08:58;;;;;;;;;;;;;;;-144.99;100.00;52301.34;5051215;28;19942;-75
2023/07/14 05:11:26;;;;;;;;;;;;;;;-144.99;100.00;52289.13;5045423;28;20037;-75
2023/07/14 05:13:53;;;;;;;;;;;;;;;-144.99;100.00;52293.19;5048734;28;19998;-76
2023/07/14 05:16:21;;;;;;;;;;;;;;;-144.99;100.00;52317.66;5057067;28;19928;-76
2023/07/14 05:18:48;;;;;;;;;;;;;;;-144.99;100.00;52280.97;5055980;28;19949;-78
2023/07/14 05:21:14;;;;;;;;;;;;;;;-144.99;100.00;52321.72;5052497;28;19962;-76
2023/07/14 05:23:41;;;;;;;;;;;;;;;-144.99;100.00;52285.03;5056352;28;19930;-77
2023/07/14 05:26:07;;;;;;;;;;;;;;;-144.99;100.00;52331.91;5057975;28;19975;-77
2023/07/14 05:28:35;;;;;;;;;;;;;;;-144.99;100.00;52301.34;5057448;28;19929;-76
2023/07/14 05:31:03;;;;;;;;;;;;;;;-144.99;100.00;52297.25;5058032;28;19965;-76
2023/07/14 05:33:30;;;;;;;;;;;;;;;-144.99;100.00;52291.16;5057893;28;19951;-77
2023/07/14 05:35:56;;;;;;;;;;;;;;;-144.99;100.00;52313.56;5054417;28;19932;-77
2023/07/14 05:38:23;;;;;;;;;;;;;;;-144.99;100.00;52321.72;5057969;28;19951;-77
2023/07/14 05:40:52;;;;;;;;;;;;;;;-144.99;100.00;52321.72;5057384;28;19972;-76
2023/07/14 05:43:19;;;;;;;;;;;;;;;-144.99;100.00;52285.03;5054510;28;19928;-78
2023/07/14 05:45:48;;;;;;;;;;;;;;;-144.99;100.00;52285.03;5054887;28;19932;-76
2023/07/14 05:48:16;;;;;;;;;;;;;;;-144.99;100.00;52276.88;5050188;28;19932;-76
2023/07/14 05:50:43;;;;;;;;;;;;;;;-144.99;100.00;52264.66;5030857;28;20453;-77
2023/07/14 05:53:10;;;;;;;;;;;;;;;-144.99;100.00;52278.91;5029686;28;19929;-77
2023/07/14 05:55:36;;;;;;;;;;;;;;;-144.99;100.00;52309.50;5045391;28;19947;-77
2023/07/14 05:58:03;;;;;;;;;;;;;;;-144.99;100.00;52301.34;5029061;28;19945;-77
2023/07/14 06:00:30;;;;;;;;;;;;;;;-144.99;100.00;52285.03;5025961;28;19970;-76
2023/07/14 06:02:57;;;;;;;;;;;;;;;-144.99;100.00;52276.88;5028955;28;20480;-76
2023/07/14 06:05:24;;;;;;;;;;;;;;;-144.99;100.00;52305.41;5025124;28;19928;-76
2023/07/14 06:07:51;;;;;;;;;;;;;;;-144.99;100.00;52313.56;5029217;28;19939;-76
2023/07/14 06:10:18;;;;;;;;;;;;;;;-144.99;100.00;52309.50;5035985;28;19961;-77
2023/07/14 06:12:44;;;;;;;;;;;;;;;-144.99;100.00;52299.31;5028759;28;20537;-77
2023/07/14 06:15:11;;;;;;;;;;;;;;;-144.99;100.00;52303.38;5027445;28;19937;-76
2023/07/14 06:17:38;;;;;;;;;;;;;;;-144.99;100.00;52240.19;4329809;28;10000606;-75
2023/07/14 06:20:07;;;;;;;;;;;;;;;-144.99;100.00;52260.56;5023545;28;19965;-80
2023/07/14 06:22:34;;;;;;;;;;;;;;;-144.99;100.00;52276.88;5049358;28;20006;-76
2023/07/14 06:25:00;;;;;;;;;;;;;;;-144.99;100.00;52276.88;5041328;28;19925;-73
2023/07/14 06:27:31;;;;;;;;;;;;;;;-144.99;99.72;52270.78;5030909;28;19969;-77
2023/07/14 06:29:58;;;;;;;;;;;;;;;-144.99;99.29;52276.88;5027006;28;20486;-75
2023/07/14 06:32:24;;;;;;;;;;;;;;;-144.99;98.71;52305.41;5027802;28;19960;-76
2023/07/14 06:34:51;;;;;;;;;;;;;;;-144.99;98.40;52268.72;5028454;28;20386;-77
2023/07/14 06:37:19;;;;;;;;;;;;;;;-144.99;98.00;52293.19;5025062;28;19949;-78
2023/07/14 06:39:46;;;;;;;;;;;;;;;-144.99;98.45;52285.03;5025778;28;19961;-76
2023/07/14 06:42:12;;;;;;;;;;;;;;;-144.99;98.36;52240.19;5026181;28;19959;-76
2023/07/14 06:44:39;;;;;;;;;;;;;;;-144.99;97.39;52289.13;5027851;28;19947;-75
2023/07/14 06:47:06;;;;;;;;;;;;;;;-144.99;96.05;52285.03;5026908;28;20770;-76
2023/07/14 06:49:33;;;;;;;;;;;;;;;-144.99;96.01;52266.69;5031272;28;19944;-77
2023/07/14 06:51:59;;;;;;;;;;;;;;;-144.99;95.61;52276.88;5030836;28;19925;-77
2023/07/14 06:54:27;;;;;;;;;;;;;;;-144.99;94.76;52289.13;5031465;28;19946;-74
2023/07/14 06:56:56;;;;;;;;;;;;;;;-144.99;94.17;52276.88;5036796;28;19936;-77
2023/07/14 06:59:23;;;;;;;;;;;;;;;-144.99;93.43;52262.63;5049806;28;20004;-76
2023/07/14 07:01:49;;;;;;;;;;;;;;;-144.99;92.85;52252.44;5031952;28;19970;-76
2023/07/14 07:04:16;;;;;;;;;;;;;;;-144.99;92.11;52236.13;5031278;28;19964;-77
2023/07/14 07:06:43;;;;;;;;;;;;;;;-144.99;91.17;52244.28;5030713;28;20590;-76
2023/07/14 07:09:09;;;;;;;;;;;;;;;-144.99;90.51;52236.13;5033586;28;19950;-77
2023/07/14 07:11:37;;;;;;;;;;;;;;;-144.99;89.06;52280.97;5048088;28;19983;-76
2023/07/14 07:14:04;;;;;;;;;;;;;;;-144.99;87.95;52244.28;5042639;28;20363;-75
2023/07/14 07:16:31;;;;;;;;;;;;;;;-144.99;86.86;52225.94;5032408;28;19959;-75
2023/07/14 07:18:57;;;;;;;;;;;;;;;-144.99;86.61;52240.19;5032789;28;20330;-75
2023/07/14 07:21:24;;;;;;;;;;;;;;;-144.99;86.09;52278.91;5026160;28;20011;-76
2023/07/14 07:23:50;;;;;;;;;;;;;;;-144.99;89.08;52248.34;5030144;28;19970;-76
2023/07/14 07:26:17;;;;;;;;;;;;;;;-144.99;89.10;52248.34;5029364;28;19979;-77
2023/07/14 07:28:46;;;;;;;;;;;;;;;-144.99;86.67;52223.88;5028392;28;20058;-76
2023/07/14 07:31:14;;;;;;;;;;;;;;;-144.99;86.14;52256.50;5027129;28;19959;-76
2023/07/14 07:33:41;;;;;;;;;;;;;;;-144.99;85.71;52217.78;5034590;28;20033;-75
2023/07/14 07:36:15;;;;;;;;;;;;;;;-144.99;85.26;52219.81;5043193;28;19938;-73
2023/07/14 07:38:43;;;;;;;;;;;;;;;-144.99;83.99;52248.34;5028398;28;20441;-76
2023/07/14 07:41:10;;;;;;;;;;;;;;;-144.99;82.87;52211.66;5027833;28;20461;-74
2023/07/14 07:43:37;;;;;;;;;;;;;;;-144.99;82.02;52223.88;5028753;28;20641;-74
2023/07/14 07:46:05;;;;;;;;;;;;;;;-144.99;80.93;52244.28;5029652;28;19933;-75
2023/07/14 07:48:31;;;;;;;;;;;;;;;-144.99;80.09;52227.97;5035262;28;19941;-74
2023/07/14 07:50:58;;;;;;;;;;;;;;;-144.99;79.71;52258.53;5038886;28;19974;-75
2023/07/14 07:53:25;;;;;;;;;;;;;;;-144.99;79.79;52191.28;5029047;28;20028;-76
2023/07/14 07:55:52;;;;;;;;;;;;;;;-144.99;79.53;52215.75;5028501;28;20682;-75
2023/07/14 07:58:19;;;;;;;;;;;;;;;-144.99;79.95;52191.28;5026610;28;19935;-74
2023/07/14 08:00:45;;;;;;;;;;;;;;;-144.99;80.10;52197.41;5027421;28;19929;-75
2023/07/14 08:03:13;;;;;;;;;;;;;;;-144.99;79.76;52223.88;5028878;28;20633;-75
2023/07/14 08:05:40;;;;;;;;;;;;;;;-144.99;78.16;52248.34;5028212;28;19951;-73
2023/07/14 08:08:06;;;;;;;;;;;;;;;-144.99;78.43;52219.81;5028511;28;19951;-73
2023/07/14 08:10:33;;;;;;;;;;;;;;;-144.99;78.12;52260.56;5034769;28;19965;-73
2023/07/14 08:13:00;;;;;;;;;;;;;;;-144.99;78.52;52215.75;5036355;28;20032;-74
2023/07/14 08:15:26;;;;;;;;;;;;;;;-144.99;78.25;52240.19;5027718;28;19943;-74
2023/07/14 08:17:54;;;;;;;;;;;;;;;-144.99;78.05;52215.75;5027597;28;19963;-73
2023/07/14 08:20:22;;;;;;;;;;;;;;;-144.99;77.48;52203.50;5026270;28;19957;-73
2023/07/14 08:22:48;;;;;;;;;;;;;;;-144.99;77.52;52227.97;5028335;28;20649;-74
2023/07/14 08:25:15;;;;;;;;;;;;;;;-144.99;78.20;52211.66;5034773;28;19951;-74
2023/07/14 08:27:42;;;;;;;;;;;;;;;-144.99;77.79;52240.19;5036068;28;19969;-73
2023/07/14 08:30:09;;;;;;;;;;;;;;;-144.99;77.14;52219.81;5036217;28;20371;-76
2023/07/14 08:32:36;;;;;;;;;;;;;;;-144.99;78.04;52213.69;5036673;28;19971;-73
2023/07/14 08:35:02;;;;;;;;;;;;;;;-144.99;77.09;52191.28;5032352;28;19943;-73
2023/07/14 08:37:30;;;;;;;;;;;;;;;-144.99;75.79;52203.50;5032090;28;19982;-73
2023/07/14 08:39:57;;;;;;;;;;;;;;;-144.99;76.41;52181.09;5026635;28;20530;-74
2023/07/14 08:42:31;;;;;;;;;;;;;;;-144.99;75.06;52197.41;5027312;28;19970;-74
2023/07/14 08:45:07;;;;;;;;;;;;;;;-144.99;75.38;52219.81;5027939;28;19996;-75
2023/07/14 08:47:43;;;;;;;;;;;;;;;-144.99;74.77;52221.84;5045102;28;19929;-75
2023/07/14 08:50:13;;;;;;;;;;;;;;;-144.99;75.24;52217.78;5046324;28;19961;-75
2023/07/14 08:52:41;;;;;;;;;;;;;;;-144.99;73.88;52187.19;5027003;28;19952;-74
2023/07/14 08:55:12;;;;;;;;;;;;;;;-144.99;73.30;52207.59;5027822;28;19939;-74
2023/07/14 08:57:43;;;;;;;;;;;;;;;-144.99;72.72;52199.44;5026772;28;19990;-71
2023/07/14 09:00:12;;;;;;;;;;;;;;;-144.99;72.67;52195.34;5026273;28;20038;-74
2023/07/14 09:02:39;;;;;;;;;;;;;;;-144.99;71.54;52193.31;5026192;28;19955;-75
2023/07/14 09:05:11;;;;;;;;;;;;;;;-144.99;69.16;52223.88;5027720;28;19943;-75
2023/07/14 09:07:38;;;;;;;;;;;;;;;-144.99;69.86;52187.19;5028344;28;20006;-75
2023/07/14 09:10:10;;;;;;;;;;;;;;;-144.99;69.52;52211.66;5028814;28;19943;-76
2023/07/14 09:12:41;;;;;;;;;;;;;;;-144.99;69.75;52170.91;5027296;28;19944;-77
2023/07/14 09:15:09;;;;;;;;;;;;;;;-144.99;68.30;52185.16;5030286;28;19946;-77
2023/07/14 09:17:52;;;;;;;;;;;;;;;-144.99;69.24;52187.19;5027986;28;19950;-75
2023/07/14 09:20:29;;;;;;;;;;;;;;;-144.99;70.94;52221.84;5032747;28;19928;-77
2023/07/14 09:23:02;;;;;;;;;;;;;;;-144.99;70.96;52256.50;5028137;28;19936;-79
2023/07/14 09:25:34;;;;;;;;;;;;;;;-144.99;71.56;52201.47;5056409;28;19936;-78
2023/07/14 09:28:01;;;;;;;;;;;;;;;-144.99;71.17;52177.00;5040722;28;20033;-77
2023/07/14 09:30:28;;;;;;;;;;;;;;;-144.99;70.83;52195.34;5031617;28;19967;-76
2023/07/14 09:32:59;;;;;;;;;;;;;;;-144.99;69.14;52168.84;5030301;28;20777;-77
2023/07/14 09:35:28;;;;;;;;;;;;;;;-144.99;68.96;52187.19;5030327;28;19947;-76
2023/07/14 09:37:57;;;;;;;;;;;;;;;-144.99;70.29;52179.06;5027389;28;19946;-77
2023/07/14 09:40:26;;;;;;;;;;;;;;;-144.99;68.26;52170.91;5027264;28;19969;-75
2023/07/14 09:42:55;;;;;;;;;;;;;;;-144.99;68.20;52154.59;5032523;28;19999;-75
2023/07/14 09:45:23;;;;;;;;;;;;;;;-144.99;66.65;52172.94;5034292;28;19955;-76
2023/07/14 09:47:56;;;;;;;;;;;;;;;-144.99;66.45;52166.81;5050489;28;20496;-76
2023/07/14 09:50:25;;;;;;;;;;;;;;;-144.99;65.80;52201.47;5036539;28;20009;-78
2023/07/14 09:52:54;;;;;;;;;;;;;;;-144.99;65.45;52154.59;5032777;28;19929;-77
2023/07/14 09:55:21;;;;;;;;;;;;;;;-144.99;65.10;52126.06;5055084;28;19951;-77
2023/07/14 09:57:50;;;;;;;;;;;;;;;-144.99;66.38;52138.28;5036909;28;19954;-77
2023/07/14 10:00:22;;;;;;;;;;;;;;;-144.99;66.87;52166.81;5030293;28;19952;-76
2023/07/14 10:02:58;;;;;;;;;;;;;;;-144.99;65.69;52177.00;5056609;28;20004;-76
2023/07/14 10:05:34;;;;;;;;;;;;;;;-144.99;66.18;52179.06;5035074;28;19965;-76
2023/07/14 10:08:03;;;;;;;;;;;;;;;-144.99;67.69;52148.47;5028969;28;20355;-76
2023/07/14 10:10:30;;;;;;;;;;;;;;;-144.99;67.39;52150.53;5027947;28;20595;-77
2023/07/14 10:12:57;;;;;;;;;;;;;;;-144.99;67.47;52199.44;5026545;28;19942;-76
2023/07/14 10:15:30;;;;;;;;;;;;;;;-144.99;66.45;52195.34;5030514;28;19990;-76
2023/07/14 10:17:57;;;;;;;;;;;;;;;-144.99;67.20;52195.34;5028364;28;20319;-74
2023/07/14 10:20:24;;;;;;;;;;;;;;;-144.99;67.40;52187.19;5023962;28;19962;-75
2023/07/14 10:22:52;;;;;;;;;;;;;;;-144.99;66.80;52199.44;5028829;28;19950;-76
2023/07/14 10:25:19;;;;;;;;;;;;;;;-144.99;66.57;52158.66;5032980;28;19953;-78
2023/07/14 10:27:52;;;;;;;;;;;;;;;-144.99;66.42;52162.75;5032387;28;19943;-78
2023/07/14 10:30:26;;;;;;;;;;;;;;;-144.99;65.91;52152.56;5033263;28;20443;-77
2023/07/14 10:32:56;;;;;;;;;;;;;;;-144.99;65.77;52103.66;5031975;28;19967;-78
2023/07/14 10:35:24;;;;;;;;;;;;;;;-144.99;64.83;52195.34;5034145;28;20059;-78
2023/07/14 10:37:55;;;;;;;;;;;;;;;-144.99;64.66;52181.09;5036819;28;20045;-82
2023/07/14 10:40:24;;;;;;;;;;;;;;;-144.99;64.62;52179.06;5051948;28;19959;-76
2023/07/14 10:42:53;;;;;;;;;;;;;;;-144.99;65.17;52126.06;5030691;28;20037;-78
2023/07/14 10:45:20;;;;;;;;;;;;;;;-144.99;65.21;52121.97;5029529;28;19943;-77
2023/07/14 10:47:50;;;;;;;;;;;;;;;-144.99;65.69;52097.53;5030570;28;20287;-76
2023/07/14 10:50:20;;;;;;;;;;;;;;;-144.99;63.97;52109.75;5032717;28;19952;-77
2023/07/14 10:52:50;;;;;;;;;;;;;;;-144.99;63.98;52150.53;5035793;28;20034;-76
2023/07/14 10:55:20;;;;;;;;;;;;;;;-144.99;63.02;52044.53;5036300;28;20415;-78
2023/07/14 10:57:49;;;;;;;;;;;;;;;-144.99;63.00;52156.63;5032803;28;19943;-76
2023/07/14 11:00:20;;;;;;;;;;;;;;;-144.99;63.46;52134.22;5034609;28;19959;-77
2023/07/14 11:02:51;;;;;;;;;;;;;;;-144.99;63.22;52146.44;5031704;28;20052;-77
2023/07/14 11:05:20;;;;;;;;;;;;;;;-144.99;64.85;52166.81;5031190;28;20689;-77
2023/07/14 11:07:47;;;;;;;;;;;;;;;-144.99;65.03;52203.50;5030136;28;20462;-77
2023/07/14 11:10:18;;;;;;;;;;;;;;;-144.99;65.66;52189.25;5032272;28;19925;-77
2023/07/14 11:12:49;;;;;;;;;;;;;;;-144.99;66.24;52219.81;5032527;28;20445;-77
2023/07/14 11:15:20;;;;;;;;;;;;;;;-144.99;67.30;52236.13;5038590;28;19934;-76
2023/07/14 11:17:55;;;;;;;;;;;;;;;-144.99;68.18;52217.78;5049103;28;19933;-78
2023/07/14 11:20:26;;;;;;;;;;;;;;;-144.99;67.61;52227.97;5036438;28;19958;-77
2023/07/14 11:22:57;;;;;;;;;;;;;;;-144.99;68.54;52236.13;5033905;28;19964;-76
2023/07/14 11:25:27;;;;;;;;;;;;;;;-144.99;68.14;52223.88;5033689;28;20054;-77
2023/07/14 11:27:58;;;;;;;;;;;;;;;-144.99;67.61;52189.25;5031104;28;20032;-77
2023/07/14 11:30:29;;;;;;;;;;;;;;;-144.99;67.48;52219.81;5028163;28;19959;-77
2023/07/14 11:33:01;;;;;;;;;;;;;;;-144.99;67.60;52162.75;5030948;28;19944;-75
2023/07/14 11:35:34;;;;;;;;;;;;;;;-144.99;67.13;52195.34;5035368;28;20655;-77
2023/07/14 11:38:17;;;;;;;;;;;;;;;-144.99;66.98;52211.66;5026338;28;21086;-77
2023/07/14 11:40:46;;;;;;;;;;;;;;;-144.99;67.66;52223.88;5029150;28;19968;-77
2023/07/14 11:43:16;;;;;;;;;;;;;;;-144.99;67.96;52191.28;5027162;28;20545;-75
2023/07/14 11:45:45;;;;;;;;;;;;;;;-144.99;67.79;52199.44;5031626;28;19950;-76
2023/07/14 11:48:22;;;;;;;;;;;;;;;-144.99;67.53;52134.22;5032526;28;19942;-77
2023/07/14 11:51:02;;;;;;;;;;;;;;;-144.99;66.60;52158.66;5047464;28;19965;-77
2023/07/14 11:53:33;;;;;;;;;;;;;;;-144.99;66.49;52168.84;5051311;28;19947;-76
2023/07/14 11:56:14;;;;;;;;;;;;;;;-144.99;66.62;52179.06;5042152;28;19929;-77
2023/07/14 11:58:40;;;;;;;;;;;;;;;-144.99;66.80;52174.97;5030599;28;20332;-76
2023/07/14 12:01:15;;;;;;;;;;;;;;;-144.99;66.46;52166.81;5029129;28;19936;-76
2023/07/14 12:03:48;;;;;;;;;;;;;;;-144.99;66.41;52166.81;5030789;28;19950;-77
2023/07/14 12:06:23;;;;;;;;;;;;;;;-144.99;66.43;52211.66;5026781;28;19952;-76
2023/07/14 12:09:00;;;;;;;;;;;;;;;-144.99;66.98;52209.63;5028397;28;19944;-77
2023/07/14 12:11:28;;;;;;;;;;;;;;;-144.99;67.59;52179.06;5029052;28;19969;-77
2023/07/14 12:13:58;;;;;;;;;;;;;;;-144.99;67.65;52195.34;5029652;28;20348;-77
2023/07/14 12:16:25;;;;;;;;;;;;;;;-144.99;67.75;52179.06;5025453;28;19955;-78
2023/07/14 12:18:59;;;;;;;;;;;;;;;-144.99;67.91;52211.66;5028849;28;19936;-78
2023/07/14 12:21:42;;;;;;;;;;;;;;;-144.99;68.32;52203.50;5031355;28;19932;-77
2023/07/14 12:24:12;;;;;;;;;;;;;;;-144.99;68.78;52207.59;5031950;28;19949;-76
2023/07/14 12:26:44;;;;;;;;;;;;;;;-144.99;70.32;52215.75;5032416;28;19958;-77